createdAt,value
2017-07-08T00:00:47.126Z,0
2017-07-08T00:01:47.090Z,0
2017-07-08T00:02:47.123Z,0
2017-07-08T00:03:47.040Z,0
2017-07-08T00:04:47.116Z,0
2017-07-08T00:05:47.115Z,0
2017-07-08T00:06:47.112Z,0
2017-07-08T00:07:47.110Z,0
2017-07-08T00:08:47.111Z,0
2017-07-08T00:09:47.116Z,0
2017-07-08T00:10:47.121Z,0
2017-07-08T00:11:47.025Z,0
2017-07-08T00:12:47.114Z,0
2017-07-08T00:13:47.125Z,0
2017-07-08T00:14:47.046Z,0
2017-07-08T00:15:47.120Z,0
2017-07-08T00:16:47.136Z,0
2017-07-08T00:17:47.130Z,0
2017-07-08T00:18:47.044Z,0
2017-07-08T00:19:47.048Z,0
2017-07-08T00:20:47.097Z,0
2017-07-08T00:21:47.130Z,0
2017-07-08T00:22:47.116Z,0
2017-07-08T00:23:47.129Z,0
2017-07-08T00:24:47.050Z,0
2017-07-08T00:25:47.140Z,0
2017-07-08T00:26:47.067Z,0
2017-07-08T00:27:47.049Z,0
2017-07-08T00:28:47.053Z,0
2017-07-08T00:29:47.043Z,0
2017-07-08T00:30:47.131Z,0
2017-07-08T00:31:47.048Z,0
2017-07-08T00:32:47.057Z,0
2017-07-08T00:33:47.141Z,0
2017-07-08T00:34:47.111Z,0
2017-07-08T00:35:47.105Z,0
2017-07-08T00:36:47.110Z,0
2017-07-08T00:37:47.110Z,0
2017-07-08T00:38:47.108Z,0
2017-07-08T00:39:47.111Z,0
2017-07-08T00:40:47.110Z,0
2017-07-08T00:41:47.112Z,0
2017-07-08T00:42:47.112Z,0
2017-07-08T00:43:47.113Z,0
2017-07-08T00:44:47.112Z,0
2017-07-08T00:45:47.061Z,0
2017-07-08T00:46:47.143Z,0
2017-07-08T00:47:47.152Z,0
2017-07-08T00:48:47.058Z,0
2017-07-08T00:49:47.143Z,0
2017-07-08T00:50:47.153Z,0
2017-07-08T00:51:47.130Z,0
2017-07-08T00:52:47.154Z,0
2017-07-08T00:53:47.145Z,0
2017-07-08T00:54:47.143Z,0
2017-07-08T00:55:47.146Z,0
2017-07-08T00:56:47.147Z,0
2017-07-08T00:57:47.141Z,0
2017-07-08T00:58:47.121Z,0
2017-07-08T00:59:47.150Z,0
2017-07-08T01:00:47.074Z,0
2017-07-08T01:01:47.123Z,0
2017-07-08T01:02:47.151Z,0
2017-07-08T01:03:47.149Z,0
2017-07-08T01:04:47.148Z,0
2017-07-08T01:05:47.060Z,0
2017-07-08T01:06:47.096Z,0
2017-07-08T01:07:47.062Z,0
2017-07-08T01:08:47.152Z,0
2017-07-08T01:09:47.251Z,0
2017-07-08T01:10:47.149Z,0
2017-07-08T01:11:47.155Z,0
2017-07-08T01:12:47.154Z,0
2017-07-08T01:13:47.141Z,0
2017-07-08T01:14:47.129Z,0
2017-07-08T01:15:47.131Z,0
2017-07-08T01:16:47.219Z,0
2017-07-08T01:17:47.130Z,0
2017-07-08T01:18:47.129Z,0
2017-07-08T01:19:47.133Z,0
2017-07-08T01:20:47.133Z,0
2017-07-08T01:21:47.133Z,0
2017-07-08T01:22:47.132Z,0
2017-07-08T01:23:47.132Z,0
2017-07-08T01:24:47.163Z,0
2017-07-08T01:25:47.160Z,0
2017-07-08T01:26:47.086Z,0
2017-07-08T01:27:47.165Z,0
2017-07-08T01:28:47.174Z,0
2017-07-08T01:29:47.167Z,0
2017-07-08T01:30:47.176Z,0
2017-07-08T01:31:47.183Z,0
2017-07-08T01:32:47.138Z,0
2017-07-08T01:33:47.087Z,0
2017-07-08T01:34:47.134Z,0
2017-07-08T01:35:47.089Z,0
2017-07-08T01:36:47.107Z,0
2017-07-08T01:37:47.178Z,0
2017-07-08T01:38:47.173Z,0
2017-07-08T01:39:47.180Z,0
2017-07-08T01:40:47.172Z,0
2017-07-08T01:41:47.173Z,0
2017-07-08T01:42:47.142Z,0
2017-07-08T01:43:47.180Z,0
2017-07-08T01:44:47.167Z,0
2017-07-08T01:45:47.179Z,0
2017-07-08T01:46:47.143Z,0
2017-07-08T01:47:47.176Z,0
2017-07-08T01:48:47.165Z,0
2017-07-08T01:49:47.179Z,0
2017-07-08T01:50:47.176Z,0
2017-07-08T01:51:47.175Z,0
2017-07-08T01:52:47.188Z,0
2017-07-08T01:53:47.187Z,0
2017-07-08T01:54:47.149Z,0
2017-07-08T01:55:47.184Z,0
2017-07-08T01:56:47.180Z,0
2017-07-08T01:57:47.190Z,0
2017-07-08T01:58:47.175Z,0
2017-07-08T01:59:47.180Z,0
2017-07-08T02:00:47.190Z,0
2017-07-08T02:01:47.153Z,0
2017-07-08T02:02:47.107Z,0
2017-07-08T02:03:47.185Z,0
2017-07-08T02:04:47.178Z,0
2017-07-08T02:05:47.108Z,0
2017-07-08T02:06:47.156Z,0
2017-07-08T02:07:47.184Z,0
2017-07-08T02:08:47.087Z,0
2017-07-08T02:09:47.100Z,0
2017-07-08T02:10:47.189Z,0
2017-07-08T02:11:47.110Z,0
2017-07-08T02:12:47.158Z,0
2017-07-08T02:13:47.180Z,0
2017-07-08T02:14:47.190Z,0
2017-07-08T02:15:47.167Z,0
2017-07-08T02:16:47.101Z,0
2017-07-08T02:17:47.187Z,0
2017-07-08T02:18:47.181Z,0
2017-07-08T02:19:47.099Z,0
2017-07-08T02:20:47.116Z,0
2017-07-08T02:21:47.107Z,0
2017-07-08T02:22:47.098Z,0
2017-07-08T02:23:47.132Z,0
2017-07-08T02:24:47.293Z,0
2017-07-08T02:25:47.171Z,0
2017-07-08T02:26:47.173Z,0
2017-07-08T02:27:47.174Z,0
2017-07-08T02:28:47.198Z,0
2017-07-08T02:29:47.177Z,0
2017-07-08T02:30:47.176Z,0
2017-07-08T02:31:47.121Z,0
2017-07-08T02:32:47.177Z,0
2017-07-08T02:33:47.163Z,0
2017-07-08T02:34:47.176Z,0
2017-07-08T02:35:47.167Z,0
2017-07-08T02:36:47.202Z,0
2017-07-08T02:37:47.192Z,0
2017-07-08T02:38:47.106Z,0
2017-07-08T02:39:47.208Z,0
2017-07-08T02:40:47.208Z,0
2017-07-08T02:41:47.208Z,0
2017-07-08T02:42:47.117Z,0
2017-07-08T02:43:47.111Z,0
2017-07-08T02:44:47.207Z,0
2017-07-08T02:45:47.182Z,0
2017-07-08T02:46:47.182Z,0
2017-07-08T02:47:47.182Z,0
2017-07-08T02:48:47.187Z,0
2017-07-08T02:49:47.183Z,0
2017-07-08T02:50:47.187Z,0
2017-07-08T02:51:47.188Z,0
2017-07-08T02:52:47.186Z,0
2017-07-08T02:53:47.189Z,0
2017-07-08T02:54:47.186Z,0
2017-07-08T02:55:47.135Z,5
2017-07-08T02:56:47.180Z,5
2017-07-08T02:57:47.217Z,5
2017-07-08T02:58:47.227Z,5
2017-07-08T02:59:47.190Z,5
2017-07-08T03:00:47.213Z,5
2017-07-08T03:01:47.218Z,11
2017-07-08T03:02:47.222Z,11
2017-07-08T03:03:47.221Z,11
2017-07-08T03:04:47.186Z,11
2017-07-08T03:05:47.138Z,11
2017-07-08T03:06:47.161Z,16
2017-07-08T03:07:47.234Z,16
2017-07-08T03:08:47.148Z,16
2017-07-08T03:09:47.223Z,16
2017-07-08T03:10:47.239Z,22
2017-07-08T03:11:47.217Z,22
2017-07-08T03:12:47.223Z,22
2017-07-08T03:13:47.238Z,22
2017-07-08T03:14:47.146Z,28
2017-07-08T03:15:47.217Z,28
2017-07-08T03:16:47.225Z,28
2017-07-08T03:17:47.224Z,33
2017-07-08T03:18:47.133Z,33
2017-07-08T03:19:47.226Z,39
2017-07-08T03:20:47.223Z,39
2017-07-08T03:21:47.142Z,45
2017-07-08T03:22:47.135Z,45
2017-07-08T03:23:47.146Z,50
2017-07-08T03:24:47.226Z,50
2017-07-08T03:25:47.207Z,56
2017-07-08T03:26:47.209Z,56
2017-07-08T03:27:47.209Z,61
2017-07-08T03:28:47.207Z,67
2017-07-08T03:29:47.207Z,67
2017-07-08T03:30:47.208Z,73
2017-07-08T03:31:47.211Z,78
2017-07-08T03:32:47.211Z,84
2017-07-08T03:33:47.212Z,90
2017-07-08T03:34:47.208Z,95
2017-07-08T03:35:47.210Z,101
2017-07-08T03:36:47.210Z,101
2017-07-08T03:37:47.211Z,106
2017-07-08T03:38:47.212Z,106
2017-07-08T03:39:47.213Z,112
2017-07-08T03:40:47.215Z,112
2017-07-08T03:41:47.212Z,118
2017-07-08T03:42:47.213Z,123
2017-07-08T03:43:47.213Z,129
2017-07-08T03:44:47.216Z,129
2017-07-08T03:45:47.242Z,135
2017-07-08T03:46:47.230Z,146
2017-07-08T03:47:47.167Z,151
2017-07-08T03:48:47.252Z,157
2017-07-08T03:49:47.232Z,168
2017-07-08T03:50:47.240Z,174
2017-07-08T03:51:47.249Z,180
2017-07-08T03:52:47.213Z,180
2017-07-08T03:53:47.244Z,185
2017-07-08T03:54:47.248Z,191
2017-07-08T03:55:47.238Z,191
2017-07-08T03:56:47.238Z,191
2017-07-08T03:57:47.231Z,196
2017-07-08T03:58:47.250Z,196
2017-07-08T03:59:47.222Z,202
2017-07-08T04:00:47.252Z,202
2017-07-08T04:01:47.239Z,208
2017-07-08T04:02:47.239Z,219
2017-07-08T04:03:47.238Z,219
2017-07-08T04:04:47.240Z,219
2017-07-08T04:05:47.253Z,219
2017-07-08T04:06:47.157Z,225
2017-07-08T04:07:47.248Z,236
2017-07-08T04:08:47.257Z,241
2017-07-08T04:09:47.158Z,253
2017-07-08T04:10:47.249Z,258
2017-07-08T04:11:47.257Z,270
2017-07-08T04:12:47.170Z,275
2017-07-08T04:13:47.256Z,286
2017-07-08T04:14:47.253Z,298
2017-07-08T04:15:47.265Z,315
2017-07-08T04:16:47.172Z,331
2017-07-08T04:17:47.174Z,348
2017-07-08T04:18:47.162Z,360
2017-07-08T04:19:47.173Z,376
2017-07-08T04:20:47.157Z,410
2017-07-08T04:21:47.221Z,416
2017-07-08T04:22:47.268Z,410
2017-07-08T04:23:47.208Z,416
2017-07-08T04:24:47.275Z,410
2017-07-08T04:25:47.248Z,410
2017-07-08T04:26:47.251Z,427
2017-07-08T04:27:47.251Z,438
2017-07-08T04:28:47.258Z,438
2017-07-08T04:29:47.263Z,427
2017-07-08T04:30:47.253Z,438
2017-07-08T04:31:47.254Z,466
2017-07-08T04:32:47.253Z,466
2017-07-08T04:33:47.267Z,483
2017-07-08T04:34:47.267Z,483
2017-07-08T04:35:47.268Z,495
2017-07-08T04:36:47.185Z,517
2017-07-08T04:37:47.271Z,545
2017-07-08T04:38:47.183Z,585
2017-07-08T04:39:47.233Z,618
2017-07-08T04:40:47.275Z,607
2017-07-08T04:41:47.282Z,579
2017-07-08T04:42:47.277Z,556
2017-07-08T04:43:47.278Z,551
2017-07-08T04:44:47.188Z,540
2017-07-08T04:45:47.283Z,534
2017-07-08T04:46:47.201Z,540
2017-07-08T04:47:47.257Z,540
2017-07-08T04:48:47.283Z,545
2017-07-08T04:49:47.202Z,551
2017-07-08T04:50:47.247Z,568
2017-07-08T04:51:47.263Z,573
2017-07-08T04:52:47.204Z,585
2017-07-08T04:53:47.278Z,596
2017-07-08T04:54:47.240Z,596
2017-07-08T04:55:47.281Z,601
2017-07-08T04:56:47.264Z,607
2017-07-08T04:57:47.180Z,613
2017-07-08T04:58:47.268Z,613
2017-07-08T04:59:47.272Z,630
2017-07-08T05:00:47.257Z,652
2017-07-08T05:01:47.271Z,663
2017-07-08T05:02:47.274Z,686
2017-07-08T05:03:47.272Z,697
2017-07-08T05:04:47.270Z,714
2017-07-08T05:05:47.262Z,725
2017-07-08T05:06:47.257Z,725
2017-07-08T05:07:47.257Z,703
2017-07-08T05:08:47.259Z,669
2017-07-08T05:09:47.258Z,641
2017-07-08T05:10:47.362Z,618
2017-07-08T05:11:47.260Z,613
2017-07-08T05:13:47.261Z,579
2017-07-08T05:14:47.263Z,562
2017-07-08T05:15:47.291Z,545
2017-07-08T05:16:47.292Z,568
2017-07-08T05:17:47.290Z,596
2017-07-08T05:18:47.302Z,630
2017-07-08T05:19:47.305Z,658
2017-07-08T05:20:47.296Z,680
2017-07-08T05:21:47.299Z,697
2017-07-08T05:22:47.290Z,697
2017-07-08T05:23:47.285Z,720
2017-07-08T05:24:47.219Z,731
2017-07-08T05:25:47.294Z,759
2017-07-08T05:26:47.389Z,793
2017-07-08T05:27:47.281Z,826
2017-07-08T05:28:47.283Z,877
2017-07-08T05:29:47.286Z,911
2017-07-08T05:30:47.289Z,956
2017-07-08T05:31:47.287Z,1006
2017-07-08T05:32:47.289Z,1046
2017-07-08T05:33:47.410Z,1051
2017-07-08T05:34:47.283Z,1063
2017-07-08T05:35:47.317Z,1068
2017-07-08T05:36:47.310Z,1080
2017-07-08T05:37:47.275Z,1080
2017-07-08T05:38:47.262Z,1074
2017-07-08T05:39:47.313Z,1051
2017-07-08T05:40:47.268Z,995
2017-07-08T05:41:47.311Z,945
2017-07-08T05:42:47.293Z,866
2017-07-08T05:43:47.224Z,798
2017-07-08T05:44:47.313Z,787
2017-07-08T05:45:47.313Z,765
2017-07-08T05:46:47.330Z,759
2017-07-08T05:47:47.243Z,793
2017-07-08T05:48:47.245Z,883
2017-07-08T05:49:47.319Z,1040
2017-07-08T05:50:47.314Z,1186
2017-07-08T05:51:47.302Z,1254
2017-07-08T05:52:47.319Z,1254
2017-07-08T05:53:47.287Z,1237
2017-07-08T05:54:47.231Z,1237
2017-07-08T05:55:47.303Z,1220
2017-07-08T05:56:47.289Z,1192
2017-07-08T05:57:47.291Z,1147
2017-07-08T05:58:47.287Z,1136
2017-07-08T05:59:47.290Z,1119
2017-07-08T06:00:47.290Z,1091
2017-07-08T06:01:47.290Z,1085
2017-07-08T06:02:47.290Z,1091
2017-07-08T06:03:47.292Z,1085
2017-07-08T06:04:47.293Z,1102
2017-07-08T06:05:47.296Z,1141
2017-07-08T06:06:47.318Z,1147
2017-07-08T06:07:47.321Z,1136
2017-07-08T06:08:47.328Z,1108
2017-07-08T06:09:47.244Z,1080
2017-07-08T06:10:47.307Z,1085
2017-07-08T06:11:47.249Z,1141
2017-07-08T06:12:47.335Z,1192
2017-07-08T06:13:47.325Z,1243
2017-07-08T06:14:47.323Z,1316
2017-07-08T06:15:47.318Z,1389
2017-07-08T06:16:47.230Z,1428
2017-07-08T06:17:47.237Z,1400
2017-07-08T06:18:47.302Z,1355
2017-07-08T06:19:47.327Z,1321
2017-07-08T06:20:47.242Z,1265
2017-07-08T06:21:47.428Z,1203
2017-07-08T06:22:47.296Z,1125
2017-07-08T06:23:47.351Z,1051
2017-07-08T06:24:47.348Z,1006
2017-07-08T06:25:47.319Z,945
2017-07-08T06:26:47.321Z,883
2017-07-08T06:27:47.320Z,838
2017-07-08T06:28:47.318Z,810
2017-07-08T06:29:47.321Z,759
2017-07-08T06:30:47.327Z,720
2017-07-08T06:31:47.323Z,714
2017-07-08T06:32:47.324Z,708
2017-07-08T06:33:47.323Z,714
2017-07-08T06:34:47.326Z,759
2017-07-08T06:35:47.322Z,810
2017-07-08T06:36:47.308Z,849
2017-07-08T06:37:47.313Z,888
2017-07-08T06:38:47.310Z,939
2017-07-08T06:39:47.310Z,990
2017-07-08T06:40:47.310Z,1035
2017-07-08T06:41:47.312Z,1085
2017-07-08T06:42:47.311Z,1147
2017-07-08T06:43:47.312Z,1203
2017-07-08T06:44:47.311Z,1243
2017-07-08T06:45:47.318Z,1248
2017-07-08T06:46:47.355Z,1282
2017-07-08T06:47:47.359Z,1344
2017-07-08T06:48:47.309Z,1406
2017-07-08T06:49:47.355Z,1490
2017-07-08T06:50:47.316Z,1580
2017-07-08T06:51:47.340Z,1631
2017-07-08T06:52:47.340Z,1693
2017-07-08T06:53:47.338Z,1732
2017-07-08T06:54:47.332Z,1749
2017-07-08T06:55:47.363Z,1760
2017-07-08T06:56:47.251Z,1738
2017-07-08T06:57:47.341Z,1704
2017-07-08T06:58:47.326Z,1653
2017-07-08T06:59:47.333Z,1631
2017-07-08T07:00:47.336Z,1608
2017-07-08T07:01:47.335Z,1575
2017-07-08T07:02:47.334Z,1558
2017-07-08T07:03:47.339Z,1552
2017-07-08T07:04:47.336Z,1558
2017-07-08T07:05:47.338Z,1541
2017-07-08T07:06:47.359Z,1496
2017-07-08T07:07:47.361Z,1456
2017-07-08T07:08:47.275Z,1462
2017-07-08T07:09:47.355Z,1473
2017-07-08T07:10:47.274Z,1473
2017-07-08T07:11:47.361Z,1468
2017-07-08T07:12:47.346Z,1468
2017-07-08T07:13:47.364Z,1473
2017-07-08T07:14:47.279Z,1485
2017-07-08T07:15:47.392Z,1468
2017-07-08T07:16:47.348Z,1451
2017-07-08T07:17:47.345Z,1451
2017-07-08T07:18:47.348Z,1462
2017-07-08T07:19:47.344Z,1501
2017-07-08T07:20:47.427Z,1552
2017-07-08T07:21:47.360Z,1620
2017-07-08T07:22:47.361Z,1670
2017-07-08T07:23:47.347Z,1681
2017-07-08T07:24:47.350Z,1648
2017-07-08T07:25:47.349Z,1586
2017-07-08T07:26:47.287Z,1507
2017-07-08T07:27:47.364Z,1445
2017-07-08T07:28:47.376Z,1406
2017-07-08T07:29:47.367Z,1395
2017-07-08T07:30:47.337Z,1378
2017-07-08T07:31:47.291Z,1372
2017-07-08T07:32:47.364Z,1344
2017-07-08T07:33:47.366Z,1316
2017-07-08T07:34:47.377Z,1288
2017-07-08T07:35:47.378Z,1271
2017-07-08T07:36:47.364Z,1299
2017-07-08T07:37:47.359Z,1378
2017-07-08T07:38:47.374Z,1496
2017-07-08T07:39:47.478Z,1586
2017-07-08T07:40:47.286Z,1642
2017-07-08T07:41:47.432Z,1693
2017-07-08T07:42:47.297Z,1783
2017-07-08T07:43:47.347Z,1901
2017-07-08T07:44:47.360Z,1996
2017-07-08T07:45:47.372Z,2047
2017-07-08T07:46:47.342Z,2019
2017-07-08T07:47:47.373Z,1918
2017-07-08T07:48:47.292Z,1816
2017-07-08T07:49:47.386Z,1794
2017-07-08T07:50:47.302Z,1839
2017-07-08T07:51:47.361Z,1929
2017-07-08T07:52:47.386Z,2019
2017-07-08T07:53:47.389Z,2081
2017-07-08T07:54:47.302Z,2131
2017-07-08T07:55:47.381Z,2188
2017-07-08T07:56:47.386Z,2255
2017-07-08T07:57:47.383Z,2356
2017-07-08T07:58:47.371Z,2480
2017-07-08T07:59:47.308Z,2643
2017-07-08T08:00:47.350Z,3166
2017-07-08T08:01:47.370Z,2328
2017-07-08T08:02:47.373Z,2227
2017-07-08T08:03:47.348Z,2244
2017-07-08T08:04:47.399Z,2283
2017-07-08T08:05:47.351Z,2295
2017-07-08T08:06:47.385Z,2289
2017-07-08T08:07:47.400Z,2266
2017-07-08T08:08:47.390Z,2233
2017-07-08T08:09:47.390Z,2199
2017-07-08T08:10:47.313Z,2188
2017-07-08T08:11:47.369Z,2131
2017-07-08T08:12:47.413Z,2013
2017-07-08T08:13:47.387Z,1839
2017-07-08T08:14:47.326Z,1721
2017-07-08T08:15:47.391Z,1715
2017-07-08T08:16:47.389Z,1777
2017-07-08T08:17:47.392Z,1845
2017-07-08T08:18:47.394Z,1912
2017-07-08T08:19:47.372Z,1974
2017-07-08T08:20:47.407Z,2070
2017-07-08T08:21:47.315Z,2182
2017-07-08T08:22:47.394Z,2283
2017-07-08T08:23:47.390Z,2396
2017-07-08T08:24:47.396Z,2469
2017-07-08T08:25:47.402Z,2452
2017-07-08T08:26:47.372Z,2317
2017-07-08T08:27:47.373Z,2351
2017-07-08T08:28:47.370Z,2469
2017-07-08T08:29:47.370Z,2525
2017-07-08T08:30:47.374Z,2542
2017-07-08T08:31:47.373Z,2660
2017-07-08T08:32:47.372Z,2705
2017-07-08T08:33:47.379Z,2446
2017-07-08T08:34:47.376Z,2328
2017-07-08T08:35:47.376Z,2238
2017-07-08T08:36:47.330Z,2221
2017-07-08T08:37:47.391Z,2272
2017-07-08T08:38:47.324Z,2300
2017-07-08T08:39:47.331Z,1996
2017-07-08T08:40:47.408Z,1805
2017-07-08T08:41:47.371Z,1777
2017-07-08T08:42:47.424Z,1777
2017-07-08T08:43:47.331Z,1771
2017-07-08T08:44:47.408Z,1800
2017-07-08T08:45:47.415Z,1816
2017-07-08T08:46:47.405Z,1845
2017-07-08T08:47:47.396Z,1884
2017-07-08T08:48:47.396Z,1963
2017-07-08T08:49:47.395Z,1996
2017-07-08T08:50:47.399Z,2025
2017-07-08T08:51:47.401Z,2019
2017-07-08T08:52:47.398Z,2041
2017-07-08T08:53:47.399Z,2131
2017-07-08T08:54:47.397Z,2295
2017-07-08T08:55:47.400Z,2295
2017-07-08T08:56:47.388Z,2469
2017-07-08T08:57:47.488Z,2424
2017-07-08T08:58:47.388Z,2154
2017-07-08T08:59:47.489Z,2160
2017-07-08T09:00:47.390Z,2210
2017-07-08T09:01:47.391Z,2340
2017-07-08T09:02:47.395Z,2340
2017-07-08T09:03:47.389Z,2570
2017-07-08T09:04:47.391Z,2536
2017-07-08T09:05:47.392Z,2688
2017-07-08T09:06:47.409Z,2660
2017-07-08T09:07:47.403Z,2835
2017-07-08T09:08:47.320Z,4528
2017-07-08T09:09:47.411Z,2975
2017-07-08T09:10:47.406Z,2671
2017-07-08T09:11:47.410Z,2565
2017-07-08T09:12:47.493Z,2452
2017-07-08T09:13:47.406Z,2463
2017-07-08T09:14:47.412Z,2626
2017-07-08T09:15:47.416Z,2818
2017-07-08T09:16:47.401Z,2868
2017-07-08T09:17:47.398Z,2863
2017-07-08T09:18:47.398Z,3307
2017-07-08T09:19:47.399Z,2739
2017-07-08T09:20:47.397Z,2812
2017-07-08T09:21:47.398Z,3150
2017-07-08T09:22:47.397Z,3256
2017-07-08T09:23:47.402Z,3150
2017-07-08T09:24:47.402Z,2964
2017-07-08T09:25:47.403Z,2908
2017-07-08T09:26:47.404Z,2891
2017-07-08T09:27:47.434Z,2868
2017-07-08T09:28:47.437Z,2812
2017-07-08T09:29:47.392Z,2767
2017-07-08T09:30:47.354Z,2711
2017-07-08T09:31:47.427Z,2705
2017-07-08T09:32:47.412Z,2716
2017-07-08T09:33:47.353Z,2711
2017-07-08T09:34:47.379Z,2818
2017-07-08T09:35:47.350Z,2958
2017-07-08T09:36:47.436Z,3318
2017-07-08T09:37:47.421Z,5461
2017-07-08T09:38:47.421Z,3751
2017-07-08T09:39:47.423Z,3510
2017-07-08T09:40:47.421Z,3864
2017-07-08T09:41:47.423Z,3740
2017-07-08T09:42:47.423Z,3645
2017-07-08T09:43:47.423Z,3898
2017-07-08T09:44:47.352Z,3605
2017-07-08T09:45:47.423Z,3577
2017-07-08T09:46:47.428Z,3796
2017-07-08T09:47:47.364Z,4021
2017-07-08T09:48:47.426Z,3853
2017-07-08T09:49:47.446Z,4719
2017-07-08T09:50:47.455Z,5928
2017-07-08T09:51:47.447Z,6046
2017-07-08T09:52:47.366Z,5253
2017-07-08T09:53:47.428Z,4938
2017-07-08T09:54:47.459Z,4820
2017-07-08T09:55:47.459Z,5889
2017-07-08T09:56:47.431Z,4089
2017-07-08T09:57:47.362Z,3414
2017-07-08T09:58:47.368Z,3054
2017-07-08T09:59:47.446Z,2823
2017-07-08T10:00:47.409Z,2806
2017-07-08T10:01:47.453Z,2677
2017-07-08T10:02:47.433Z,2626
2017-07-08T10:03:47.453Z,2806
2017-07-08T10:04:47.460Z,2581
2017-07-08T10:05:47.398Z,2705
2017-07-08T10:06:47.455Z,2778
2017-07-08T10:07:47.430Z,2880
2017-07-08T10:08:47.426Z,3549
2017-07-08T10:09:47.431Z,4207
2017-07-08T10:10:47.430Z,3335
2017-07-08T10:11:47.432Z,3183
2017-07-08T10:12:47.431Z,3971
2017-07-08T10:13:47.437Z,4730
2017-07-08T10:14:47.428Z,4702
2017-07-08T10:15:47.435Z,4803
2017-07-08T10:16:47.433Z,4882
2017-07-08T10:17:47.485Z,5118
2017-07-08T10:18:47.445Z,5411
2017-07-08T10:19:47.443Z,5625
2017-07-08T10:20:47.446Z,5703
2017-07-08T10:21:47.445Z,5883
2017-07-08T10:22:47.462Z,6058
2017-07-08T10:23:47.444Z,6075
2017-07-08T10:24:47.448Z,6024
2017-07-08T10:25:47.447Z,5805
2017-07-08T10:26:47.449Z,5495
2017-07-08T10:27:47.449Z,5501
2017-07-08T10:28:47.466Z,5405
2017-07-08T10:29:47.449Z,5253
2017-07-08T10:30:47.453Z,5625
2017-07-08T10:31:47.452Z,5546
2017-07-08T10:32:47.452Z,5248
2017-07-08T10:33:47.454Z,5445
2017-07-08T10:34:47.480Z,6041
2017-07-08T10:35:47.450Z,5602
2017-07-08T10:36:47.456Z,5596
2017-07-08T10:37:47.374Z,3526
2017-07-08T10:38:47.380Z,4831
2017-07-08T10:39:47.432Z,5270
2017-07-08T10:40:47.389Z,4663
2017-07-08T10:41:47.376Z,4646
2017-07-08T10:42:47.425Z,5118
2017-07-08T10:43:47.421Z,5411
2017-07-08T10:44:47.417Z,5670
2017-07-08T10:45:47.419Z,5158
2017-07-08T10:46:47.388Z,5512
2017-07-08T10:47:47.460Z,5591
2017-07-08T10:48:47.464Z,5220
2017-07-08T10:49:47.461Z,5653
2017-07-08T10:50:47.461Z,5338
2017-07-08T10:51:47.469Z,5658
2017-07-08T10:52:47.459Z,5737
2017-07-08T10:53:47.467Z,5805
2017-07-08T10:54:47.462Z,5923
2017-07-08T10:55:47.467Z,6131
2017-07-08T10:56:47.464Z,5630
2017-07-08T10:57:47.456Z,3358
2017-07-08T10:58:47.454Z,4635
2017-07-08T10:59:47.458Z,4314
2017-07-08T11:00:47.456Z,3976
2017-07-08T11:01:47.459Z,6260
2017-07-08T11:02:47.459Z,4230
2017-07-08T11:03:47.458Z,5625
2017-07-08T11:04:47.462Z,5248
2017-07-08T11:05:47.461Z,4657
2017-07-08T11:06:47.459Z,6530
2017-07-08T11:07:47.468Z,7188
2017-07-08T11:08:47.488Z,4550
2017-07-08T11:09:47.492Z,4275
2017-07-08T11:10:47.474Z,4066
2017-07-08T11:11:47.468Z,4668
2017-07-08T11:12:47.491Z,4674
2017-07-08T11:13:47.494Z,5028
2017-07-08T11:14:47.499Z,4702
2017-07-08T11:15:47.419Z,4387
2017-07-08T11:16:47.494Z,4831
2017-07-08T11:17:47.407Z,4376
2017-07-08T11:18:47.495Z,4336
2017-07-08T11:19:47.499Z,4488
2017-07-08T11:20:47.479Z,4455
2017-07-08T11:21:47.496Z,4590
2017-07-08T11:22:47.502Z,4168
2017-07-08T11:23:47.483Z,4488
2017-07-08T11:24:47.480Z,4443
2017-07-08T11:25:47.496Z,3723
2017-07-08T11:26:47.481Z,3481
2017-07-08T11:27:47.487Z,3555
2017-07-08T11:28:47.493Z,5191
2017-07-08T11:29:47.488Z,5985
2017-07-08T11:30:47.486Z,6322
2017-07-08T11:31:47.492Z,3909
2017-07-08T11:32:47.575Z,7183
2017-07-08T11:33:47.487Z,7650
2017-07-08T11:34:47.489Z,3825
2017-07-08T11:35:47.488Z,7380
2017-07-08T11:36:47.493Z,6395
2017-07-08T11:37:47.514Z,6316
2017-07-08T11:38:47.423Z,6311
2017-07-08T11:39:47.424Z,6103
2017-07-08T11:40:47.427Z,6834
2017-07-08T11:41:47.516Z,3875
2017-07-08T11:42:47.515Z,5484
2017-07-08T11:43:47.515Z,6975
2017-07-08T11:44:47.426Z,6508
2017-07-08T11:45:47.515Z,6446
2017-07-08T11:46:47.510Z,4696
2017-07-08T11:47:47.486Z,5456
2017-07-08T11:48:47.488Z,5737
2017-07-08T11:49:47.490Z,3363
2017-07-08T11:50:47.489Z,2908
2017-07-08T11:51:47.486Z,3195
2017-07-08T11:52:47.486Z,5090
2017-07-08T11:53:47.490Z,2863
2017-07-08T11:54:47.491Z,7104
2017-07-08T11:55:47.488Z,6547
2017-07-08T11:56:47.496Z,5287
2017-07-08T11:57:47.526Z,3155
2017-07-08T11:58:47.535Z,7042
2017-07-08T11:59:47.482Z,6727
2017-07-08T12:00:47.499Z,6772
2017-07-08T12:01:47.445Z,6423
2017-07-08T12:02:47.523Z,5816
2017-07-08T12:03:47.437Z,5709
2017-07-08T12:04:47.526Z,6181
2017-07-08T12:05:47.525Z,5371
2017-07-08T12:06:47.523Z,5405
2017-07-08T12:07:47.508Z,3459
2017-07-08T12:08:47.509Z,4657
2017-07-08T12:09:47.518Z,5360
2017-07-08T12:10:47.523Z,5872
2017-07-08T12:11:47.507Z,6086
2017-07-08T12:12:47.510Z,6165
2017-07-08T12:13:47.510Z,6300
2017-07-08T12:14:47.592Z,6294
2017-07-08T12:15:47.512Z,6350
2017-07-08T12:16:47.513Z,6395
2017-07-08T12:17:47.539Z,6373
2017-07-08T12:18:47.539Z,6283
2017-07-08T12:19:47.534Z,6159
2017-07-08T12:20:47.496Z,5748
2017-07-08T12:21:47.511Z,5945
2017-07-08T12:22:47.516Z,5900
2017-07-08T12:23:47.531Z,5501
2017-07-08T12:24:47.513Z,4826
2017-07-08T12:25:47.452Z,3785
2017-07-08T12:26:47.546Z,4438
2017-07-08T12:27:47.454Z,5135
2017-07-08T12:28:47.516Z,6007
2017-07-08T12:29:47.461Z,6288
2017-07-08T12:30:47.520Z,5180
2017-07-08T12:31:47.541Z,4747
2017-07-08T12:32:47.540Z,4500
2017-07-08T12:33:47.549Z,4055
2017-07-08T12:34:47.458Z,4325
2017-07-08T12:35:47.544Z,4843
2017-07-08T12:36:47.549Z,3881
2017-07-08T12:37:47.519Z,4443
2017-07-08T12:38:47.464Z,5900
2017-07-08T12:39:47.551Z,5698
2017-07-08T12:40:47.546Z,5315
2017-07-08T12:41:47.520Z,4601
2017-07-08T12:42:47.503Z,5355
2017-07-08T12:43:47.462Z,5546
2017-07-08T12:44:47.548Z,5225
2017-07-08T12:45:47.461Z,5647
2017-07-08T12:46:47.507Z,5596
2017-07-08T12:47:47.551Z,5934
2017-07-08T12:48:47.448Z,5945
2017-07-08T12:49:47.433Z,4100
2017-07-08T12:50:47.434Z,6170
2017-07-08T12:51:47.499Z,6311
2017-07-08T12:52:47.505Z,4556
2017-07-08T12:53:47.504Z,3847
2017-07-08T12:54:47.543Z,4938
2017-07-08T12:55:47.452Z,5968
2017-07-08T12:56:47.462Z,4455
2017-07-08T12:57:47.500Z,5895
2017-07-08T12:58:47.536Z,5754
2017-07-08T12:59:47.539Z,5923
2017-07-08T13:00:47.519Z,5518
2017-07-08T13:01:47.541Z,5388
2017-07-08T13:02:47.541Z,5231
2017-07-08T13:03:47.540Z,5540
2017-07-08T13:04:47.543Z,4674
2017-07-08T13:05:47.541Z,4803
2017-07-08T13:06:47.543Z,4961
2017-07-08T13:07:47.546Z,5011
2017-07-08T13:08:47.525Z,5113
2017-07-08T13:09:47.566Z,6030
2017-07-08T13:10:47.560Z,6075
2017-07-08T13:11:47.564Z,6046
2017-07-08T13:12:47.486Z,5276
2017-07-08T13:13:47.564Z,5608
2017-07-08T13:14:47.573Z,5641
2017-07-08T13:15:47.518Z,5580
2017-07-08T13:16:47.571Z,5445
2017-07-08T13:17:47.477Z,4471
2017-07-08T13:18:47.541Z,5017
2017-07-08T13:19:47.538Z,5011
2017-07-08T13:20:47.542Z,4798
2017-07-08T13:21:47.541Z,4933
2017-07-08T13:22:47.539Z,5124
2017-07-08T13:23:47.541Z,5011
2017-07-08T13:24:47.541Z,4978
2017-07-08T13:25:47.542Z,5152
2017-07-08T13:26:47.543Z,5034
2017-07-08T13:27:47.541Z,4995
2017-07-08T13:28:47.574Z,5135
2017-07-08T13:29:47.520Z,5731
2017-07-08T13:30:47.501Z,5850
2017-07-08T13:31:47.570Z,5675
2017-07-08T13:32:47.548Z,5461
2017-07-08T13:33:47.589Z,5546
2017-07-08T13:34:47.490Z,5523
2017-07-08T13:35:47.494Z,5445
2017-07-08T13:36:47.493Z,5411
2017-07-08T13:37:47.574Z,5461
2017-07-08T13:38:47.647Z,5079
2017-07-08T13:39:47.572Z,4938
2017-07-08T13:40:47.566Z,4888
2017-07-08T13:41:47.567Z,5484
2017-07-08T13:42:47.562Z,5214
2017-07-08T13:43:47.567Z,3836
2017-07-08T13:44:47.569Z,3448